sensor_id;sensor_type;location;lat;lon;timestamp;pressure;altitude;pressure_sealevel;temperature;humidity
6528;BME280;64597;42.664;23.256;2023-02-17T00:02:17;95480.56;;;3.21;56.92
6528;BME280;64597;42.664;23.256;2023-02-17T00:04:43;95501.75;;;3.18;56.98
6528;BME280;64597;42.664;23.256;2023-02-17T00:07:08;95495.56;;;3.19;56.95
6528;BME280;64597;42.664;23.256;2023-02-17T00:09:35;95496.41;;;3.11;57.17
6528;BME280;64597;42.664;23.256;2023-02-17T00:12:01;95491.69;;;3.07;57.19
6528;BME280;64597;42.664;23.256;2023-02-17T00:14:26;95490.53;;;3.09;57.41
6528;BME280;64597;42.664;23.256;2023-02-17T00:16:52;95482.75;;;3.01;57.64
6528;BME280;64597;42.664;23.256;2023-02-17T00:19:17;95492.84;;;3.04;57.32
6528;BME280;64597;42.664;23.256;2023-02-17T00:21:50;95493.00;;;2.95;57.41
6528;BME280;64597;42.664;23.256;2023-02-17T00:24:16;95459.66;;;2.74;57.52
6528;BME280;64597;42.664;23.256;2023-02-17T00:26:42;95495.31;;;2.90;57.78
6528;BME280;64597;42.664;23.256;2023-02-17T00:29:07;95459.50;;;2.51;58.17
6528;BME280;64597;42.664;23.256;2023-02-17T00:31:32;95479.53;;;2.67;58.31
6528;BME280;64597;42.664;23.256;2023-02-17T00:33:58;95472.56;;;2.60;58.45
6528;BME280;64597;42.664;23.256;2023-02-17T00:36:25;95479.38;;;2.61;58.55
6528;BME280;64597;42.664;23.256;2023-02-17T00:38:53;95477.91;;;2.58;59.06
6528;BME280;64597;42.664;23.256;2023-02-17T00:41:19;95481.63;;;2.56;59.29
6528;BME280;64597;42.664;23.256;2023-02-17T00:43:44;95469.78;;;2.61;58.78
6528;BME280;64597;42.664;23.256;2023-02-17T00:46:10;95469.59;;;2.63;59.03
6528;BME280;64597;42.664;23.256;2023-02-17T00:48:35;95440.50;;;2.43;59.01
6528;BME280;64597;42.664;23.256;2023-02-17T00:51:01;95426.69;;;2.42;59.44
6528;BME280;64597;42.664;23.256;2023-02-17T00:53:27;95441.81;;;2.47;59.15
6528;BME280;64597;42.664;23.256;2023-02-17T00:55:52;95419.53;;;2.36;59.46
6528;BME280;64597;42.664;23.256;2023-02-17T00:58:17;95443.91;;;2.51;59.30
6528;BME280;64597;42.664;23.256;2023-02-17T01:00:43;95444.88;;;2.59;59.36
6528;BME280;64597;42.664;23.256;2023-02-17T01:03:08;95447.81;;;2.64;59.26
6528;BME280;64597;42.664;23.256;2023-02-17T01:05:42;95451.06;;;2.66;59.35
6528;BME280;64597;42.664;23.256;2023-02-17T01:08:08;95440.81;;;2.56;59.10
6528;BME280;64597;42.664;23.256;2023-02-17T01:10:40;95454.47;;;2.58;59.05
6528;BME280;64597;42.664;23.256;2023-02-17T01:13:07;95456.13;;;2.59;59.04
6528;BME280;64597;42.664;23.256;2023-02-17T01:15:40;95456.59;;;2.63;59.32
6528;BME280;64597;42.664;23.256;2023-02-17T01:18:06;95449.44;;;2.65;58.68
6528;BME280;64597;42.664;23.256;2023-02-17T01:20:38;95457.06;;;2.66;58.77
6528;BME280;64597;42.664;23.256;2023-02-17T01:23:04;95447.47;;;2.67;59.11
6528;BME280;64597;42.664;23.256;2023-02-17T01:25:30;95445.53;;;2.69;58.82
6528;BME280;64597;42.664;23.256;2023-02-17T01:27:56;95439.03;;;2.65;58.72
6528;BME280;64597;42.664;23.256;2023-02-17T01:30:22;95451.56;;;2.69;58.74
6528;BME280;64597;42.664;23.256;2023-02-17T01:32:47;95140.16;;;0.71;58.81
6528;BME280;64597;42.664;23.256;2023-02-17T01:35:13;95441.97;;;2.62;58.70
6528;BME280;64597;42.664;23.256;2023-02-17T01:37:39;95443.56;;;2.63;58.81
6528;BME280;64597;42.664;23.256;2023-02-17T01:40:05;95430.25;;;2.66;58.92
6528;BME280;64597;42.664;23.256;2023-02-17T01:42:30;95439.50;;;2.60;59.28
6528;BME280;64597;42.664;23.256;2023-02-17T01:47:48;95430.09;;;2.59;59.04
6528;BME280;64597;42.664;23.256;2023-02-17T01:50:16;95436.44;;;2.57;59.31
6528;BME280;64597;42.664;23.256;2023-02-17T01:52:43;95430.41;;;2.56;59.11
6528;BME280;64597;42.664;23.256;2023-02-17T01:55:13;95421.63;;;2.57;59.24
6528;BME280;64597;42.664;23.256;2023-02-17T01:57:41;95415.78;;;2.55;59.07
6528;BME280;64597;42.664;23.256;2023-02-17T02:00:09;95400.84;;;2.41;59.05
6528;BME280;64597;42.664;23.256;2023-02-17T02:02:36;95411.72;;;2.44;59.03
6528;BME280;64597;42.664;23.256;2023-02-17T02:05:03;95428.94;;;2.62;59.03
6528;BME280;64597;42.664;23.256;2023-02-17T02:07:31;95429.28;;;2.59;59.02
6528;BME280;64597;42.664;23.256;2023-02-17T02:09:58;95421.16;;;2.62;59.13
6528;BME280;64597;42.664;23.256;2023-02-17T02:12:26;95418.03;;;2.58;59.18
6528;BME280;64597;42.664;23.256;2023-02-17T02:14:55;95399.34;;;2.55;59.08
6528;BME280;64597;42.664;23.256;2023-02-17T02:23:10;95436.41;;;2.65;58.87
6528;BME280;64597;42.664;23.256;2023-02-17T02:34:03;95424.41;;;2.64;59.07
6528;BME280;64597;42.664;23.256;2023-02-17T02:36:33;95424.72;;;2.61;59.06
6528;BME280;64597;42.664;23.256;2023-02-17T02:39:29;95435.13;;;2.61;59.30
6528;BME280;64597;42.664;23.256;2023-02-17T02:42:02;95415.28;;;2.60;58.74
6528;BME280;64597;42.664;23.256;2023-02-17T02:44:29;95434.78;;;2.72;59.01
6528;BME280;64597;42.664;23.256;2023-02-17T02:46:56;95432.84;;;2.74;59.22
6528;BME280;64597;42.664;23.256;2023-02-17T02:49:21;95417.88;;;2.68;59.20
6528;BME280;64597;42.664;23.256;2023-02-17T02:57:07;95432.50;;;2.77;59.27
6528;BME280;64597;42.664;23.256;2023-02-17T02:59:52;95435.75;;;2.79;58.93
6528;BME280;64597;42.664;23.256;2023-02-17T03:02:29;95416.88;;;2.77;59.01
6528;BME280;64597;42.664;23.256;2023-02-17T03:05:23;95424.69;;;2.77;58.44
6528;BME280;64597;42.664;23.256;2023-02-17T03:08:11;95434.78;;;2.72;58.82
6528;BME280;64597;42.664;23.256;2023-02-17T03:10:46;95431.56;;;2.62;59.16
6528;BME280;64597;42.664;23.256;2023-02-17T03:13:13;95415.28;;;2.43;59.51
6528;BME280;64597;42.664;23.256;2023-02-17T03:15:39;95427.50;;;2.59;59.79
6528;BME280;64597;42.664;23.256;2023-02-17T03:18:04;95429.28;;;2.59;59.29
6528;BME280;64597;42.664;23.256;2023-02-17T03:20:34;95427.00;;;2.47;59.87
6528;BME280;64597;42.664;23.256;2023-02-17T03:23:02;95432.84;;;2.49;59.95
6528;BME280;64597;42.664;23.256;2023-02-17T03:25:28;95426.34;;;2.45;60.11
6528;BME280;64597;42.664;23.256;2023-02-17T03:27:53;95425.22;;;2.40;60.33
6528;BME280;64597;42.664;23.256;2023-02-17T03:30:19;95401.31;;;2.28;60.41
6528;BME280;64597;42.664;23.256;2023-02-17T03:32:44;95424.38;;;2.39;60.46
6528;BME280;64597;42.664;23.256;2023-02-17T03:35:11;95415.78;;;2.55;59.84
6528;BME280;64597;42.664;23.256;2023-02-17T03:37:37;95415.59;;;2.57;59.29
6528;BME280;64597;42.664;23.256;2023-02-17T03:40:03;95421.78;;;2.47;59.66
6528;BME280;64597;42.664;23.256;2023-02-17T03:42:29;95423.72;;;2.45;59.82
6528;BME280;64597;42.664;23.256;2023-02-17T03:44:54;95426.34;;;2.45;59.69
6528;BME280;64597;42.664;23.256;2023-02-17T03:47:20;95406.53;;;2.36;59.74
6528;BME280;64597;42.664;23.256;2023-02-17T03:49:45;95429.28;;;2.42;59.89
6528;BME280;64597;42.664;23.256;2023-02-17T03:52:11;95438.56;;;2.45;59.73
6528;BME280;64597;42.664;23.256;2023-02-17T03:54:36;95428.28;;;2.35;60.14
6528;BME280;64597;42.664;23.256;2023-02-17T03:57:01;95405.88;;;2.18;60.29
6528;BME280;64597;42.664;23.256;2023-02-17T03:59:27;95428.94;;;2.29;60.18
6528;BME280;64597;42.664;23.256;2023-02-17T04:01:53;95431.88;;;2.34;59.99
6528;BME280;64597;42.664;23.256;2023-02-17T04:04:18;95435.78;;;2.30;60.28
6528;BME280;64597;42.664;23.256;2023-02-17T04:06:44;95429.59;;;2.23;60.52
6528;BME280;64597;42.664;23.256;2023-02-17T04:09:09;95414.00;;;2.23;60.17
6528;BME280;64597;42.664;23.256;2023-02-17T04:11:35;95431.53;;;2.37;60.39
6528;BME280;64597;42.664;23.256;2023-02-17T04:14:00;95429.59;;;2.39;60.43
6528;BME280;64597;42.664;23.256;2023-02-17T04:16:25;95417.56;;;2.30;60.29
6528;BME280;64597;42.664;23.256;2023-02-17T04:18:51;95400.03;;;2.24;60.18
6528;BME280;64597;42.664;23.256;2023-02-17T04:21:16;95436.09;;;2.35;59.91
6528;BME280;64597;42.664;23.256;2023-02-17T04:23:42;95424.72;;;2.28;60.65
6528;BME280;64597;42.664;23.256;2023-02-17T04:26:08;95417.88;;;2.19;60.76
6528;BME280;64597;42.664;23.256;2023-02-17T04:28:36;95431.22;;;2.24;60.52
6528;BME280;64597;42.664;23.256;2023-02-17T04:31:03;95427.97;;;2.30;60.50
6528;BME280;64597;42.664;23.256;2023-02-17T04:33:28;95429.59;;;2.31;60.22
6528;BME280;64597;42.664;23.256;2023-02-17T04:35:54;95426.81;;;2.25;60.51
6528;BME280;64597;42.664;23.256;2023-02-17T04:38:27;95424.38;;;2.23;60.87
6528;BME280;64597;42.664;23.256;2023-02-17T04:40:54;95423.44;;;2.24;60.63
6528;BME280;64597;42.664;23.256;2023-02-17T04:43:21;95417.72;;;2.13;60.73
6528;BME280;64597;42.664;23.256;2023-02-17T04:45:47;95442.94;;;2.12;61.12
6528;BME280;64597;42.664;23.256;2023-02-17T04:48:12;95435.13;;;2.04;61.01
6528;BME280;64597;42.664;23.256;2023-02-17T04:50:38;95434.47;;;2.02;61.19
6528;BME280;64597;42.664;23.256;2023-02-17T04:53:03;95438.50;;;2.05;61.44
6528;BME280;64597;42.664;23.256;2023-02-17T04:55:29;95448.59;;;2.00;61.76
6528;BME280;64597;42.664;23.256;2023-02-17T04:57:55;95433.78;;;1.92;61.67
6528;BME280;64597;42.664;23.256;2023-02-17T05:00:20;95446.97;;;1.99;61.73
6528;BME280;64597;42.664;23.256;2023-02-17T05:02:46;95446.97;;;1.99;61.77
6528;BME280;64597;42.664;23.256;2023-02-17T05:05:11;95433.94;;;1.91;61.93
6528;BME280;64597;42.664;23.256;2023-02-17T05:07:41;95433.78;;;1.92;61.89
6528;BME280;64597;42.664;23.256;2023-02-17T05:10:07;95445.81;;;1.93;61.95
6528;BME280;64597;42.664;23.256;2023-02-17T05:12:33;95451.50;;;1.89;62.09
6528;BME280;64597;42.664;23.256;2023-02-17T05:14:59;95451.97;;;1.92;61.97
6528;BME280;64597;42.664;23.256;2023-02-17T05:17:25;95456.69;;;1.89;62.06
6528;BME280;64597;42.664;23.256;2023-02-17T05:19:50;95420.25;;;1.64;62.03
6528;BME280;64597;42.664;23.256;2023-02-17T05:22:16;95468.41;;;1.93;62.00
6528;BME280;64597;42.664;23.256;2023-02-17T05:24:41;95475.06;;;1.95;61.93
6528;BME280;64597;42.664;23.256;2023-02-17T05:27:07;95485.47;;;1.95;61.90
6528;BME280;64597;42.664;23.256;2023-02-17T05:29:33;95475.72;;;1.97;61.92
6528;BME280;64597;42.664;23.256;2023-02-17T05:31:58;95471.16;;;1.91;62.11
6528;BME280;64597;42.664;23.256;2023-02-17T05:34:23;95481.56;;;1.91;62.01
6528;BME280;64597;42.664;23.256;2023-02-17T05:36:49;95476.00;;;1.86;61.85
6528;BME280;64597;42.664;23.256;2023-02-17T05:39:14;95485.63;;;1.94;61.93
6528;BME280;64597;42.664;23.256;2023-02-17T05:41:40;95493.09;;;1.89;62.54
6528;BME280;64597;42.664;23.256;2023-02-17T05:44:05;95495.69;;;1.89;62.54
6528;BME280;64597;42.664;23.256;2023-02-17T05:46:31;95492.91;;;1.82;63.04
6528;BME280;64597;42.664;23.256;2023-02-17T05:48:56;95487.53;;;1.76;62.53
6528;BME280;64597;42.664;23.256;2023-02-17T05:51:22;95489.00;;;1.86;62.87
6528;BME280;64597;42.664;23.256;2023-02-17T05:53:47;95487.69;;;1.82;63.22
6528;BME280;64597;42.664;23.256;2023-02-17T05:56:12;95498.09;;;1.82;63.03
6528;BME280;64597;42.664;23.256;2023-02-17T05:58:38;95496.69;;;1.88;62.79
6528;BME280;64597;42.664;23.256;2023-02-17T06:01:10;95482.66;;;1.81;63.33
6528;BME280;64597;42.664;23.256;2023-02-17T06:03:36;95495.38;;;1.92;62.76
6528;BME280;64597;42.664;23.256;2023-02-17T06:06:02;95498.50;;;2.11;62.92
6528;BME280;64597;42.664;23.256;2023-02-17T06:08:28;95494.13;;;2.20;62.40
6528;BME280;64597;42.664;23.256;2023-02-17T06:10:54;95496.59;;;2.29;62.39
6528;BME280;64597;42.664;23.256;2023-02-17T06:13:20;95492.84;;;2.40;62.52
6528;BME280;64597;42.664;23.256;2023-02-17T06:15:45;95474.63;;;2.32;62.20
6528;BME280;64597;42.664;23.256;2023-02-17T06:18:12;95495.63;;;2.55;61.76
6528;BME280;64597;42.664;23.256;2023-02-17T06:20:37;95486.19;;;2.53;61.64
6528;BME280;64597;42.664;23.256;2023-02-17T06:23:03;95494.31;;;4.54;88.42
6528;BME280;64597;42.664;23.256;2023-02-17T06:25:28;95491.50;;;4.33;77.89
6528;BME280;64597;42.664;23.256;2023-02-17T06:27:54;95488.22;;;4.08;73.25
6528;BME280;64597;42.664;23.256;2023-02-17T06:30:19;95493.56;;;4.14;67.65
6528;BME280;64597;42.664;23.256;2023-02-17T06:32:46;95491.50;;;4.33;64.67
6528;BME280;64597;42.664;23.256;2023-02-17T06:35:11;95491.97;;;4.59;62.93
6528;BME280;64597;42.664;23.256;2023-02-17T06:37:37;95496.28;;;4.89;59.53
6528;BME280;64597;42.664;23.256;2023-02-17T06:40:03;95499.59;;;5.20;59.34
6528;BME280;64597;42.664;23.256;2023-02-17T06:42:29;95487.00;;;5.38;56.06
6528;BME280;64597;42.664;23.256;2023-02-17T06:44:54;95489.63;;;5.67;54.68
6528;BME280;64597;42.664;23.256;2023-02-17T06:47:20;95491.16;;;5.91;55.24
6528;BME280;64597;42.664;23.256;2023-02-17T06:49:45;95496.66;;;6.32;54.96
6528;BME280;64597;42.664;23.256;2023-02-17T06:52:10;95490.97;;;6.64;53.90
6528;BME280;64597;42.664;23.256;2023-02-17T06:54:36;95485.81;;;6.98;53.97
6528;BME280;64597;42.664;23.256;2023-02-17T06:57:01;95492.75;;;7.33;52.68
6528;BME280;64597;42.664;23.256;2023-02-17T06:59:27;95472.66;;;7.47;50.18
6528;BME280;64597;42.664;23.256;2023-02-17T07:01:52;95469.91;;;7.62;50.42
6528;BME280;64597;42.664;23.256;2023-02-17T07:04:18;95493.41;;;8.17;49.65
6528;BME280;64597;42.664;23.256;2023-02-17T07:06:43;95497.59;;;8.59;48.92
6528;BME280;64597;42.664;23.256;2023-02-17T07:09:09;95492.41;;;8.98;48.15
6528;BME280;64597;42.664;23.256;2023-02-17T07:11:37;95490.75;;;9.49;48.40
6528;BME280;64597;42.664;23.256;2023-02-17T07:14:03;95482.16;;;10.00;47.76
6528;BME280;64597;42.664;23.256;2023-02-17T07:16:28;95495.00;;;10.40;47.91
6528;BME280;64597;42.664;23.256;2023-02-17T07:18:54;95496.31;;;11.43;76.51
6528;BME280;64597;42.664;23.256;2023-02-17T07:21:20;95487.81;;;14.20;68.45
6528;BME280;64597;42.664;23.256;2023-02-17T07:23:45;95482.78;;;15.64;48.75
6528;BME280;64597;42.664;23.256;2023-02-17T07:26:11;95476.00;;;15.40;41.23
6528;BME280;64597;42.664;23.256;2023-02-17T07:28:37;95476.38;;;15.15;36.99
6528;BME280;64597;42.664;23.256;2023-02-17T07:31:05;95471.84;;;14.99;35.86
6528;BME280;64597;42.664;23.256;2023-02-17T07:33:31;95474.00;;;14.85;34.78
6528;BME280;64597;42.664;23.256;2023-02-17T07:35:56;95480.31;;;14.96;35.17
6528;BME280;64597;42.664;23.256;2023-02-17T07:38:22;95487.47;;;14.96;34.39
6528;BME280;64597;42.664;23.256;2023-02-17T07:40:47;95484.84;;;15.12;33.75
6528;BME280;64597;42.664;23.256;2023-02-17T07:43:12;95486.28;;;15.03;33.62
6528;BME280;64597;42.664;23.256;2023-02-17T07:45:38;95479.53;;;15.12;33.40
6528;BME280;64597;42.664;23.256;2023-02-17T07:48:03;95494.84;;;15.38;33.51
6528;BME280;64597;42.664;23.256;2023-02-17T07:50:29;95480.22;;;15.52;32.97
6528;BME280;64597;42.664;23.256;2023-02-17T07:52:54;95494.81;;;15.66;31.57
6528;BME280;64597;42.664;23.256;2023-02-17T07:55:20;95492.84;;;15.79;32.36
6528;BME280;64597;42.664;23.256;2023-02-17T07:57:45;95487.25;;;15.97;32.09
6528;BME280;64597;42.664;23.256;2023-02-17T08:00:11;95465.97;;;15.97;31.35
6528;BME280;64597;42.664;23.256;2023-02-17T08:02:37;95482.50;;;16.37;31.63
6528;BME280;64597;42.664;23.256;2023-02-17T08:05:02;95480.16;;;16.62;31.60
6528;BME280;64597;42.664;23.256;2023-02-17T08:07:28;95476.97;;;16.87;31.42
6528;BME280;64597;42.664;23.256;2023-02-17T08:09:54;95484.38;;;16.80;30.51
6528;BME280;64597;42.664;23.256;2023-02-17T08:12:38;95467.53;;;16.74;30.69
6528;BME280;64597;42.664;23.256;2023-02-17T08:15:21;95466.09;;;16.88;30.41
6528;BME280;64597;42.664;23.256;2023-02-17T08:17:47;95480.25;;;17.20;30.37
6528;BME280;64597;42.664;23.256;2023-02-17T08:20:13;95480.97;;;17.43;30.25
6528;BME280;64597;42.664;23.256;2023-02-17T08:22:40;95489.16;;;17.63;29.68
6528;BME280;64597;42.664;23.256;2023-02-17T08:25:05;95460.81;;;17.88;29.29
6528;BME280;64597;42.664;23.256;2023-02-17T08:27:31;95465.19;;;18.09;28.70
6528;BME280;64597;42.664;23.256;2023-02-17T08:29:56;95462.44;;;18.41;28.23
6528;BME280;64597;42.664;23.256;2023-02-17T08:32:22;95434.47;;;18.54;27.69
6528;BME280;64597;42.664;23.256;2023-02-17T08:34:48;95461.03;;;19.01;24.57
6528;BME280;64597;42.664;23.256;2023-02-17T08:37:13;95458.38;;;19.26;24.36
6528;BME280;64597;42.664;23.256;2023-02-17T08:39:39;95456.31;;;19.68;24.53
6528;BME280;64597;42.664;23.256;2023-02-17T08:42:04;95442.88;;;19.93;23.61
6528;BME280;64597;42.664;23.256;2023-02-17T08:44:32;95443.63;;;20.14;21.03
6528;BME280;64597;42.664;23.256;2023-02-17T08:46:58;95449.81;;;20.19;22.03
6528;BME280;64597;42.664;23.256;2023-02-17T08:49:24;95444.06;;;20.51;22.19
6528;BME280;64597;42.664;23.256;2023-02-17T08:51:51;95453.97;;;20.61;20.31
6528;BME280;64597;42.664;23.256;2023-02-17T08:54:17;95444.78;;;20.72;20.70
6528;BME280;64597;42.664;23.256;2023-02-17T08:56:43;95451.66;;;20.93;20.45
6528;BME280;64597;42.664;23.256;2023-02-17T08:59:09;95461.72;;;21.16;21.11
6528;BME280;64597;42.664;23.256;2023-02-17T09:01:36;95454.84;;;21.39;19.96
6528;BME280;64597;42.664;23.256;2023-02-17T09:04:03;95442.84;;;21.31;19.29
6528;BME280;64597;42.664;23.256;2023-02-17T09:06:39;95459.41;;;21.43;20.24
6528;BME280;64597;42.664;23.256;2023-02-17T09:09:07;95445.78;;;21.68;19.95
6528;BME280;64597;42.664;23.256;2023-02-17T09:11:33;95454.81;;;21.82;18.72
6528;BME280;64597;42.664;23.256;2023-02-17T09:13:59;95451.75;;;21.60;18.06
6528;BME280;64597;42.664;23.256;2023-02-17T09:16:26;95449.50;;;21.72;19.13
6528;BME280;64597;42.664;23.256;2023-02-17T09:18:52;95446.84;;;22.01;19.17
6528;BME280;64597;42.664;23.256;2023-02-17T09:21:18;95439.16;;;22.42;19.53
6528;BME280;64597;42.664;23.256;2023-02-17T09:23:45;95443.09;;;22.73;18.44
6528;BME280;64597;42.664;23.256;2023-02-17T09:26:12;95443.31;;;22.76;17.30
6528;BME280;64597;42.664;23.256;2023-02-17T09:28:38;95439.78;;;22.34;17.99
6528;BME280;64597;42.664;23.256;2023-02-17T09:31:15;95441.16;;;22.31;17.80
6528;BME280;64597;42.664;23.256;2023-02-17T09:33:42;95443.19;;;22.39;17.75
6528;BME280;64597;42.664;23.256;2023-02-17T09:36:09;95438.81;;;22.48;17.64
6528;BME280;64597;42.664;23.256;2023-02-17T09:38:37;95449.66;;;22.14;17.79
6528;BME280;64597;42.664;23.256;2023-02-17T09:41:22;95439.19;;;22.37;17.86
6528;BME280;64597;42.664;23.256;2023-02-17T09:43:53;95436.34;;;22.52;17.90
6528;BME280;64597;42.664;23.256;2023-02-17T09:46:26;95445.31;;;22.89;17.64
6528;BME280;64597;42.664;23.256;2023-02-17T09:49:00;95446.59;;;22.92;17.82
6528;BME280;64597;42.664;23.256;2023-02-17T09:51:47;95450.16;;;23.06;17.29
6528;BME280;64597;42.664;23.256;2023-02-17T09:54:39;95440.91;;;23.36;16.98
6528;BME280;64597;42.664;23.256;2023-02-17T09:57:02;95444.41;;;23.36;16.52
6528;BME280;64597;42.664;23.256;2023-02-17T09:59:43;95443.28;;;23.37;16.92
6528;BME280;64597;42.664;23.256;2023-02-17T10:02:18;95439.50;;;23.38;16.41
6528;BME280;64597;42.664;23.256;2023-02-17T10:04:47;95412.50;;;23.25;16.72
6528;BME280;64597;42.664;23.256;2023-02-17T10:07:24;95420.94;;;23.37;16.59
6528;BME280;64597;42.664;23.256;2023-02-17T10:10:06;95440.78;;;23.59;16.57
6528;BME280;64597;42.664;23.256;2023-02-17T10:12:39;95439.00;;;23.55;16.34
6528;BME280;64597;42.664;23.256;2023-02-17T10:15:10;95438.03;;;23.46;16.92
6528;BME280;64597;42.664;23.256;2023-02-17T10:18:03;95438.69;;;23.89;37.13
6528;BME280;64597;42.664;23.256;2023-02-17T10:20:36;95410.22;;;24.42;33.93
6528;BME280;64597;42.664;23.256;2023-02-17T10:23:20;95426.78;;;24.76;26.15
6528;BME280;64597;42.664;23.256;2023-02-17T10:26:11;95426.97;;;24.93;28.01
6528;BME280;64597;42.664;23.256;2023-02-17T10:37:04;95405.91;;;24.41;16.68
6528;BME280;64597;42.664;23.256;2023-02-17T10:41:59;95409.97;;;23.98;16.90
6528;BME280;64597;42.664;23.256;2023-02-17T10:44:26;95409.59;;;24.04;16.99
6528;BME280;64597;42.664;23.256;2023-02-17T10:46:53;95399.53;;;24.10;16.03
6528;BME280;64597;42.664;23.256;2023-02-17T10:49:34;95396.69;;;23.88;16.04
6528;BME280;64597;42.664;23.256;2023-02-17T10:55:00;95380.44;;;23.28;16.28
6528;BME280;64597;42.664;23.256;2023-02-17T10:57:32;95386.25;;;22.98;16.59
6528;BME280;64597;42.664;23.256;2023-02-17T11:00:13;95387.88;;;22.99;16.74
6528;BME280;64597;42.664;23.256;2023-02-17T11:02:41;95393.50;;;23.16;17.09
6528;BME280;64597;42.664;23.256;2023-02-17T11:05:28;95390.75;;;23.21;16.97
6528;BME280;64597;42.664;23.256;2023-02-17T11:08:05;95388.28;;;23.06;16.88
6528;BME280;64597;42.664;23.256;2023-02-17T11:10:34;95390.56;;;23.18;17.54
6528;BME280;64597;42.664;23.256;2023-02-17T11:13:02;95389.25;;;22.97;16.87
6528;BME280;64597;42.664;23.256;2023-02-17T11:15:34;95383.22;;;22.86;17.31
6528;BME280;64597;42.664;23.256;2023-02-17T11:18:08;95381.25;;;22.73;17.49
6528;BME280;64597;42.664;23.256;2023-02-17T11:20:35;95371.44;;;22.40;17.65
6528;BME280;64597;42.664;23.256;2023-02-17T11:23:05;95385.44;;;22.37;17.09
6528;BME280;64597;42.664;23.256;2023-02-17T11:25:33;95377.69;;;22.35;17.83
6528;BME280;64597;42.664;23.256;2023-02-17T11:28:21;95381.41;;;22.16;17.85
6528;BME280;64597;42.664;23.256;2023-02-17T11:30:49;95380.91;;;22.13;18.69
6528;BME280;64597;42.664;23.256;2023-02-17T11:33:21;95382.75;;;22.37;18.74
6528;BME280;64597;42.664;23.256;2023-02-17T11:35:53;95366.38;;;22.38;18.72
6528;BME280;64597;42.664;23.256;2023-02-17T11:38:27;95371.44;;;22.40;18.23
6528;BME280;64597;42.664;23.256;2023-02-17T11:41:02;95355.31;;;22.40;18.50
6528;BME280;64597;42.664;23.256;2023-02-17T11:43:30;95363.31;;;22.45;18.65
6528;BME280;64597;42.664;23.256;2023-02-17T12:03:41;95354.22;;;21.70;19.13
6528;BME280;64597;42.664;23.256;2023-02-17T12:11:31;95345.13;;;21.37;20.65
6528;BME280;64597;42.664;23.256;2023-02-17T12:17:13;95344.28;;;21.13;20.15
6528;BME280;64597;42.664;23.256;2023-02-17T12:22:45;95330.41;;;21.01;20.40
6528;BME280;64597;42.664;23.256;2023-02-17T12:25:26;95330.59;;;20.76;19.94
6528;BME280;64597;42.664;23.256;2023-02-17T12:35:41;95304.06;;;20.30;20.86
6528;BME280;64597;42.664;23.256;2023-02-17T12:38:16;95301.97;;;20.27;21.02
6528;BME280;64597;42.664;23.256;2023-02-17T12:41:11;95301.38;;;20.30;21.11
6528;BME280;64597;42.664;23.256;2023-02-17T12:44:01;95303.03;;;20.16;20.95
6528;BME280;64597;42.664;23.256;2023-02-17T12:46:31;95296.41;;;20.09;21.56
6528;BME280;64597;42.664;23.256;2023-02-17T12:49:10;95295.13;;;19.91;20.96
6528;BME280;64597;42.664;23.256;2023-02-17T12:51:40;95305.34;;;19.84;21.56
6528;BME280;64597;42.664;23.256;2023-02-17T12:54:32;95285.03;;;19.78;21.82
6528;BME280;64597;42.664;23.256;2023-02-17T12:57:04;95281.72;;;19.96;22.01
6528;BME280;64597;42.664;23.256;2023-02-17T12:59:38;95279.00;;;20.06;22.26
6528;BME280;64597;42.664;23.256;2023-02-17T13:02:18;95271.06;;;19.86;21.25
6528;BME280;64597;42.664;23.256;2023-02-17T13:04:51;95284.50;;;19.71;21.63
6528;BME280;64597;42.664;23.256;2023-02-17T13:11:00;95284.81;;;19.64;21.86
6528;BME280;64597;42.664;23.256;2023-02-17T13:13:25;95288.81;;;19.57;21.63
6528;BME280;64597;42.664;23.256;2023-02-17T13:16:12;95274.47;;;19.38;21.49
6528;BME280;64597;42.664;23.256;2023-02-17T13:18:40;95277.91;;;19.28;21.95
6528;BME280;64597;42.664;23.256;2023-02-17T13:24:03;95268.28;;;19.37;21.75
6528;BME280;64597;42.664;23.256;2023-02-17T13:26:39;95283.25;;;19.43;21.18
6528;BME280;64597;42.664;23.256;2023-02-17T13:31:47;95275.81;;;19.05;21.31
6528;BME280;64597;42.664;23.256;2023-02-17T13:34:32;95277.97;;;19.03;21.96
6528;BME280;64597;42.664;23.256;2023-02-17T13:37:00;95277.16;;;19.03;21.48
6528;BME280;64597;42.664;23.256;2023-02-17T13:41:56;95269.66;;;19.00;21.67
6528;BME280;64597;42.664;23.256;2023-02-17T13:44:30;95271.81;;;18.92;21.24
6528;BME280;64597;42.664;23.256;2023-02-17T13:47:01;95275.03;;;18.95;21.41
6528;BME280;64597;42.664;23.256;2023-02-17T13:49:30;95266.47;;;18.92;21.64
6528;BME280;64597;42.664;23.256;2023-02-17T13:52:30;95276.09;;;18.88;21.50
6528;BME280;64597;42.664;23.256;2023-02-17T13:54:57;95268.59;;;18.75;21.57
6528;BME280;64597;42.664;23.256;2023-02-17T13:57:31;95286.78;;;18.78;22.09
6528;BME280;64597;42.664;23.256;2023-02-17T14:00:26;95277.94;;;18.73;21.57
6528;BME280;64597;42.664;23.256;2023-02-17T14:02:57;95280.63;;;18.68;21.66
6528;BME280;64597;42.664;23.256;2023-02-17T14:08:03;95263.47;;;18.34;21.15
6528;BME280;64597;42.664;23.256;2023-02-17T14:10:29;95277.63;;;18.34;21.29
6528;BME280;64597;42.664;23.256;2023-02-17T14:12:55;95281.63;;;18.27;21.05
6528;BME280;64597;42.664;23.256;2023-02-17T14:15:24;95279.19;;;18.20;21.59
6528;BME280;64597;42.664;23.256;2023-02-17T14:17:50;95262.88;;;17.96;21.53
6528;BME280;64597;42.664;23.256;2023-02-17T14:20:34;95271.38;;;17.93;21.27
6528;BME280;64597;42.664;23.256;2023-02-17T14:23:09;95278.03;;;17.86;21.33
6528;BME280;64597;42.664;23.256;2023-02-17T14:25:43;95254.97;;;17.55;21.77
6528;BME280;64597;42.664;23.256;2023-02-17T14:30:47;95281.38;;;17.51;22.16
6528;BME280;64597;42.664;23.256;2023-02-17T14:35:57;95278.78;;;17.24;22.66
6528;BME280;64597;42.664;23.256;2023-02-17T14:38:30;95268.09;;;17.19;23.01
6528;BME280;64597;42.664;23.256;2023-02-17T14:40:57;95282.75;;;17.22;23.63
6528;BME280;64597;42.664;23.256;2023-02-17T14:43:23;95288.84;;;17.12;23.99
6528;BME280;64597;42.664;23.256;2023-02-17T14:45:49;95286.34;;;17.01;24.09
6528;BME280;64597;42.664;23.256;2023-02-17T14:48:15;95272.13;;;16.85;24.58